Laredo International Airport
KLRD : rendu visible

Aérodrome :











RETROUVEZ-NOUS SUR...

 
LOGIN :

S'inscrire | Disclaimer

   EN    FR    IT 

 









Légende :    VFR   VFR Marginal   IFR   IFR Intensif   IFR Très Intensif
Visi : 
Plafond : 
>= 8 km
>= 3000ft
5 à 8 km
1000 à 3000 ft
1500m à 5 km
500 à 1000 ft
800 à 1500m
200 à 500 ft
< 800m
< 200 ft
Symboles :   Orages  Brouillard  Fortes neiges  Fortes précipitations  Vent > 20 kt






- Altitude de l'aérodrome : 508 ft
- Code IATA : LRD


KLRD - Laredo International

DERNIER METAR :
  • 261656Z 00000KT 10SM BKN048 OVC070 25/19 A2997 RMK AO2 SLP146 T02500194

METARs EXPIRÉS :
  • 261556Z 00000KT 10SM FEW046 OVC065 24/19 A2997 RMK AO2 SLP145 T02440194
  • 261456Z 01004KT 10SM OVC044 23/19 A2996 RMK AO2 SLP143 T02330194 53009

TAF KLRD
Valide du 26 à 12h jusqu'au 27 à 12h UTC


261136Z 2612/2712 06007KT P6SM SCT030 BKN050
FM262000 05006KT P6SM FEW100
FIR KZHU / Amérique du Nord



MET'MAP, la Météo Aéronautique d'un coup d'oeil ! - Copyright ORBIFLY Décembre 2007 - Disclaimer

ORBIFLY MET'MAP TEAM :

Programmation & Développement : Alexandra Zaïnal
Sur une idée originale de : Baudouin d'Aumeries
Assistance à la programmation : Marc-Olivier Méhu
Soutien technique & logistique : Manuel Goepfert

Contact : metmap@orbifly.com




SOURCES & CREDITS :

   NOAA       Earth
Advisory